Time;durP1;ratioP1;P1;durP2;ratioP2;P2;SDS_P1;SDS_P2;PMS_P1;PMS_P2;Temp;Humidity;BMP_temperature;BMP_pressure;BME280_temperature;BME280_humidity;BME280_pressure;Samples;Min_cycle;Max_cycle;Signal;HPM_P1;HPM_P2
2023/12/29 00:00:06;;;;;;;21.27;4.73;;;9.20;81.10;;;;;;5025145;28;20073;-74
2023/12/29 00:02:32;;;;;;;21.97;5.10;;;9.20;81.20;;;;;;5026628;28;20136;-74
2023/12/29 00:04:57;;;;;;;20.67;4.83;;;9.20;81.20;;;;;;5024879;28;20125;-74
2023/12/29 00:07:23;;;;;;;23.17;4.87;;;9.20;81.20;;;;;;5025129;28;20492;-74
2023/12/29 00:09:49;;;;;;;26.60;4.40;;;9.20;81.20;;;;;;5025605;28;20057;-72
2023/12/29 00:12:14;;;;;;;25.20;4.57;;;9.20;81.00;;;;;;5025633;28;20067;-73
2023/12/29 00:14:40;;;;;;;25.43;4.80;;;9.20;81.00;;;;;;5026499;28;20061;-73
2023/12/29 00:17:06;;;;;;;20.83;4.43;;;9.20;80.90;;;;;;5023478;28;20080;-74
2023/12/29 00:19:32;;;;;;;22.43;4.53;;;9.20;80.90;;;;;;5010883;28;20084;-74
2023/12/29 00:21:59;;;;;;;22.63;4.53;;;9.20;81.00;;;;;;5025080;28;20068;-72
2023/12/29 00:24:26;;;;;;;21.77;5.47;;;9.20;81.00;;;;;;5027063;28;20536;-74
2023/12/29 00:26:51;;;;;;;21.20;4.93;;;9.20;81.00;;;;;;5025079;28;20077;-73
2023/12/29 00:29:17;;;;;;;18.77;4.53;;;9.20;81.00;;;;;;5026202;28;20087;-74
2023/12/29 00:31:43;;;;;;;24.27;5.00;;;9.20;80.90;;;;;;5025312;28;20077;-75
2023/12/29 00:34:09;;;;;;;19.83;4.30;;;9.20;80.70;;;;;;5008273;28;20041;-74
2023/12/29 00:36:35;;;;;;;22.63;5.00;;;9.20;80.30;;;;;;5006271;28;20053;-73
2023/12/29 00:39:00;;;;;;;27.30;5.37;;;9.30;80.50;;;;;;5006120;28;20050;-74
2023/12/29 00:41:26;;;;;;;20.50;4.93;;;9.30;80.60;;;;;;5009450;28;20080;-73
2023/12/29 00:43:52;;;;;;;19.43;4.87;;;9.20;80.80;;;;;;5019695;28;20053;-73
2023/12/29 00:46:17;;;;;;;22.70;4.73;;;9.20;81.20;;;;;;5024646;28;20417;-74
2023/12/29 00:48:43;;;;;;;20.47;4.77;;;9.20;81.20;;;;;;5040785;28;20540;-75
2023/12/29 00:51:09;;;;;;;14.77;3.93;;;9.20;81.30;;;;;;5024974;28;20096;-74
2023/12/29 00:53:35;;;;;;;21.53;4.37;;;9.20;81.30;;;;;;5025954;28;20065;-73
2023/12/29 00:56:01;;;;;;;22.87;5.10;;;9.10;81.30;;;;;;5025392;28;20132;-73
2023/12/29 00:58:26;;;;;;;20.97;4.30;;;9.10;81.20;;;;;;5007082;28;20129;-73
2023/12/29 01:00:52;;;;;;;26.37;4.57;;;9.10;81.50;;;;;;5007104;28;20546;-73
2023/12/29 01:03:18;;;;;;;19.93;4.70;;;9.20;81.50;;;;;;5013634;28;20050;-74
2023/12/29 01:05:44;;;;;;;20.03;4.60;;;9.10;81.50;;;;;;5011132;28;20050;-73
2023/12/29 01:08:09;;;;;;;19.70;4.20;;;9.10;81.40;;;;;;5006038;28;20108;-73
2023/12/29 01:10:35;;;;;;;24.73;4.43;;;9.10;81.60;;;;;;5010169;28;20059;-73
2023/12/29 01:13:01;;;;;;;25.27;4.87;;;9.10;81.60;;;;;;5024886;28;20489;-73
2023/12/29 01:15:28;;;;;;;20.00;4.70;;;9.00;81.70;;;;;;5023601;28;20096;-74
2023/12/29 01:17:54;;;;;;;21.77;4.47;;;9.00;81.80;;;;;;5014244;28;20512;-73
2023/12/29 01:20:19;;;;;;;26.10;4.90;;;9.00;81.80;;;;;;5005989;28;20107;-74
2023/12/29 01:22:45;;;;;;;19.90;4.43;;;9.00;82.00;;;;;;5029158;28;20152;-74
2023/12/29 01:25:10;;;;;;;23.33;5.13;;;9.00;82.00;;;;;;5028977;28;20041;-73
2023/12/29 01:27:36;;;;;;;20.57;4.00;;;8.90;82.10;;;;;;5029739;28;20412;-73
2023/12/29 01:30:02;;;;;;;21.30;4.70;;;8.90;82.00;;;;;;5028040;28;20058;-73
2023/12/29 01:32:27;;;;;;;25.00;4.70;;;8.90;82.10;;;;;;5026069;28;20230;-73
2023/12/29 01:34:53;;;;;;;23.77;4.70;;;8.90;82.20;;;;;;5009282;28;20145;-73
2023/12/29 01:37:19;;;;;;;26.00;5.53;;;8.90;82.20;;;;;;5023639;28;20042;-73
2023/12/29 01:39:45;;;;;;;21.53;4.73;;;8.90;82.20;;;;;;5029246;28;20068;-73
2023/12/29 01:42:13;;;;;;;28.47;5.43;;;8.90;82.30;;;;;;5008495;28;20049;-74
2023/12/29 01:44:38;;;;;;;30.77;5.70;;;8.90;82.20;;;;;;5006633;28;20057;-74
2023/12/29 01:47:13;;;;;;;28.93;5.87;;;8.90;82.30;;;;;;5008897;28;20054;-73
2023/12/29 01:49:39;;;;;;;31.27;7.00;;;8.90;82.40;;;;;;5009181;28;20050;-73
2023/12/29 01:52:06;;;;;;;28.90;5.83;;;8.90;82.50;;;;;;5007760;28;20048;-73
2023/12/29 01:54:37;;;;;;;20.63;5.17;;;9.00;82.30;;;;;;5008003;28;20060;-73
2023/12/29 01:57:04;;;;;;;17.63;4.40;;;8.90;81.80;;;;;;5025257;28;20053;-75
2023/12/29 01:59:31;;;;;;;15.80;3.43;;;8.90;81.10;;;;;;5028127;28;20049;-73
2023/12/29 02:01:57;;;;;;;17.47;3.90;;;8.90;80.50;;;;;;5024934;28;20393;-73
2023/12/29 02:04:27;;;;;;;22.87;4.00;;;8.90;80.00;;;;;;5008127;28;20453;-73
2023/12/29 02:06:53;;;;;;;17.30;3.77;;;8.90;80.00;;;;;;5007967;28;20117;-73
2023/12/29 02:09:19;;;;;;;18.43;4.10;;;8.90;79.90;;;;;;5008898;28;20042;-73
2023/12/29 02:11:45;;;;;;;19.70;4.07;;;8.90;80.10;;;;;;5022304;28;20068;-74
2023/12/29 02:14:11;;;;;;;22.20;4.37;;;8.80;80.00;;;;;;5028367;28;20833;-72
2023/12/29 02:17:05;;;;;;;19.90;4.10;;;8.80;79.60;;;;;;5020315;28;20049;-73
2023/12/29 02:19:43;;;;;;;20.47;4.33;;;8.90;79.30;;;;;;5017953;28;20481;-73
2023/12/29 02:22:11;;;;;;;24.30;4.53;;;8.90;79.00;;;;;;5007839;28;20354;-73
2023/12/29 02:24:37;;;;;;;15.57;3.60;;;9.00;79.00;;;;;;5008656;28;20104;-73
2023/12/29 02:27:06;;;;;;;15.87;3.67;;;9.00;79.10;;;;;;5008172;28;20050;-72
2023/12/29 02:29:33;;;;;;;17.83;4.07;;;8.90;77.90;;;;;;5007727;28;20160;-73
2023/12/29 02:32:01;;;;;;;20.53;4.43;;;8.90;77.80;;;;;;5008033;28;20054;-72
2023/12/29 02:34:29;;;;;;;18.03;4.03;;;8.80;77.60;;;;;;5028188;28;20046;-74
2023/12/29 02:36:56;;;;;;;18.77;4.37;;;8.90;76.90;;;;;;5027393;28;20049;-74
2023/12/29 02:39:22;;;;;;;20.97;4.70;;;8.90;76.70;;;;;;5028094;28;20041;-73
2023/12/29 02:41:48;;;;;;;24.23;4.90;;;8.90;76.10;;;;;;5027697;28;20057;-74
2023/12/29 02:44:13;;;;;;;23.87;4.97;;;8.80;76.40;;;;;;5022311;28;20107;-73
2023/12/29 02:46:39;;;;;;;22.70;5.20;;;8.80;76.50;;;;;;5027927;28;20056;-73
2023/12/29 02:49:05;;;;;;;17.37;3.80;;;8.80;76.40;;;;;;5025718;28;20112;-74
2023/12/29 02:51:31;;;;;;;26.37;4.63;;;8.80;76.50;;;;;;5023251;28;20054;-73
2023/12/29 02:53:56;;;;;;;24.30;5.37;;;8.80;76.60;;;;;;5016579;28;20059;-73
2023/12/29 02:56:22;;;;;;;26.00;5.13;;;8.80;76.50;;;;;;5027315;28;20053;-73
2023/12/29 02:58:48;;;;;;;29.83;5.47;;;8.90;76.50;;;;;;5027815;28;20085;-73
2023/12/29 03:01:14;;;;;;;24.40;5.37;;;8.90;76.60;;;;;;5027041;28;20041;-75
2023/12/29 03:03:39;;;;;;;31.10;5.73;;;9.00;76.30;;;;;;5041314;28;20109;-72
2023/12/29 03:06:06;;;;;;;34.50;6.53;;;9.00;76.40;;;;;;5008589;28;20064;-73
2023/12/29 03:08:32;;;;;;;27.27;6.37;;;9.00;76.60;;;;;;5010295;28;20443;-73
2023/12/29 03:10:58;;;;;;;30.90;6.37;;;9.00;76.90;;;;;;5027068;28;20065;-74
2023/12/29 03:13:24;;;;;;;35.03;7.33;;;9.00;77.20;;;;;;5027868;28;20053;-72
2023/12/29 03:15:50;;;;;;;36.73;8.00;;;9.00;77.60;;;;;;5026313;28;20060;-73
2023/12/29 03:18:16;;;;;;;35.13;7.17;;;9.00;78.20;;;;;;5026679;28;20051;-74
2023/12/29 03:20:41;;;;;;;38.83;8.07;;;9.00;78.40;;;;;;5026556;28;20141;-73
2023/12/29 03:23:07;;;;;;;43.43;8.13;;;9.00;78.60;;;;;;5026096;28;20054;-73
2023/12/29 03:25:33;;;;;;;45.33;8.93;;;9.00;79.00;;;;;;5027032;28;20057;-73
2023/12/29 03:28:00;;;;;;;51.30;9.07;;;9.00;79.10;;;;;;5026435;28;20057;-73
2023/12/29 03:30:26;;;;;;;47.77;8.50;;;9.10;79.50;;;;;;5013358;28;20049;-72
2023/12/29 03:32:51;;;;;;;44.57;8.57;;;9.20;79.80;;;;;;5018814;28;20060;-73
2023/12/29 03:35:17;;;;;;;48.73;9.60;;;9.20;80.20;;;;;;5025783;28;20375;-72
2023/12/29 03:37:43;;;;;;;38.27;8.37;;;9.20;80.40;;;;;;5027556;28;20057;-73
2023/12/29 03:40:09;;;;;;;44.93;9.13;;;9.20;79.20;;;;;;5025425;28;20053;-73
2023/12/29 03:42:35;;;;;;;46.10;8.70;;;9.20;79.00;;;;;;5020523;28;20053;-74
2023/12/29 03:45:00;;;;;;;38.63;8.13;;;9.20;78.40;;;;;;5026865;28;20057;-73
2023/12/29 03:47:26;;;;;;;34.57;7.43;;;9.20;77.80;;;;;;5025014;28;20041;-73
2023/12/29 03:49:52;;;;;;;39.20;7.43;;;9.20;77.40;;;;;;5026964;28;20054;-74
2023/12/29 03:52:17;;;;;;;26.80;6.57;;;9.20;76.60;;;;;;5026195;28;20099;-73
2023/12/29 03:54:43;;;;;;;34.37;7.70;;;9.20;75.40;;;;;;5026568;28;20448;-74
2023/12/29 03:57:09;;;;;;;31.50;7.67;;;9.20;75.50;;;;;;5026472;28;20111;-75
2023/12/29 03:59:37;;;;;;;36.23;7.30;;;9.10;75.30;;;;;;5027046;28;20064;-73
2023/12/29 04:02:03;;;;;;;35.03;6.70;;;9.10;74.60;;;;;;5024615;28;20049;-73
2023/12/29 04:04:28;;;;;;;31.27;7.43;;;9.00;75.10;;;;;;5005346;28;20046;-73
2023/12/29 04:06:54;;;;;;;35.20;7.60;;;9.00;75.20;;;;;;5006553;28;20505;-73
2023/12/29 04:09:21;;;;;;;35.67;7.83;;;9.00;75.70;;;;;;5006502;28;20068;-73
2023/12/29 04:11:46;;;;;;;31.77;7.97;;;9.00;75.70;;;;;;5023233;28;20065;-73
2023/12/29 04:14:12;;;;;;;36.87;8.10;;;9.00;75.70;;;;;;5026670;28;20089;-73
2023/12/29 04:16:39;;;;;;;31.03;6.33;;;9.00;75.90;;;;;;5025836;28;20064;-73
2023/12/29 04:19:05;;;;;;;35.10;7.63;;;9.00;75.90;;;;;;5007785;28;20133;-72
2023/12/29 04:21:30;;;;;;;39.03;8.03;;;9.00;75.70;;;;;;5026194;28;20136;-73
2023/12/29 04:23:56;;;;;;;37.93;7.00;;;9.00;75.60;;;;;;5027021;28;20272;-73
2023/12/29 04:26:21;;;;;;;30.60;6.77;;;9.00;75.40;;;;;;5025487;28;20071;-72
2023/12/29 04:28:47;;;;;;;33.83;6.83;;;9.00;75.10;;;;;;5026268;28;20076;-72
2023/12/29 04:31:13;;;;;;;33.53;6.77;;;9.00;75.30;;;;;;5024968;28;20061;-72
2023/12/29 04:33:39;;;;;;;38.80;7.80;;;9.00;74.80;;;;;;5012724;28;20042;-73
2023/12/29 04:36:05;;;;;;;36.10;7.23;;;9.00;75.20;;;;;;5004188;28;20058;-73
2023/12/29 04:38:30;;;;;;;39.17;7.60;;;9.00;75.00;;;;;;4976798;28;20058;-73
2023/12/29 04:40:56;;;;;;;36.40;7.40;;;9.00;74.80;;;;;;4986668;28;20049;-72
2023/12/29 04:43:22;;;;;;;32.37;7.17;;;9.00;74.90;;;;;;5004352;28;20140;-72
2023/12/29 04:45:47;;;;;;;38.40;7.40;;;9.00;74.50;;;;;;4990325;28;20518;-73
2023/12/29 04:48:13;;;;;;;38.23;7.53;;;9.00;74.20;;;;;;5000772;28;20077;-73
2023/12/29 04:50:39;;;;;;;34.70;7.07;;;9.00;74.10;;;;;;5012905;28;20060;-72
2023/12/29 04:53:04;;;;;;;32.67;6.83;;;9.00;73.90;;;;;;5027370;28;20124;-73
2023/12/29 04:55:30;;;;;;;32.10;6.40;;;8.90;73.90;;;;;;5030100;28;20049;-71
2023/12/29 04:57:55;;;;;;;35.73;7.17;;;8.90;73.50;;;;;;5029788;28;20049;-72
2023/12/29 05:00:21;;;;;;;33.60;6.60;;;8.90;72.90;;;;;;5029168;28;20049;-73
2023/12/29 05:02:47;;;;;;;37.83;7.40;;;8.90;72.80;;;;;;5030219;28;20053;-72
2023/12/29 05:05:12;;;;;;;34.00;7.10;;;9.00;72.60;;;;;;5006993;28;20049;-71
2023/12/29 05:07:38;;;;;;;27.37;6.50;;;9.00;72.50;;;;;;5013718;28;20091;-74
2023/12/29 05:10:04;;;;;;;34.20;6.93;;;9.00;72.70;;;;;;5028777;28;20050;-72
2023/12/29 05:12:30;;;;;;;27.73;6.40;;;9.00;72.70;;;;;;5029086;28;20136;-71
2023/12/29 05:14:56;;;;;;;29.30;7.30;;;9.00;72.90;;;;;;5030093;28;20121;-73
2023/12/29 05:17:21;;;;;;;39.53;7.27;;;8.90;72.80;;;;;;5028478;28;20049;-72
2023/12/29 05:19:47;;;;;;;31.53;6.70;;;9.00;73.10;;;;;;5023649;28;20177;-71
2023/12/29 05:22:17;;;;;;;45.00;8.13;;;9.00;72.90;;;;;;5008262;28;20062;-71
2023/12/29 05:24:43;;;;;;;38.53;7.37;;;9.00;72.90;;;;;;5014666;28;20061;-75
2023/12/29 05:27:08;;;;;;;32.43;7.50;;;9.00;72.70;;;;;;5024825;28;20405;-72
2023/12/29 05:29:34;;;;;;;35.60;7.90;;;9.00;72.90;;;;;;5027087;28;20073;-72
2023/12/29 05:32:02;;;;;;;34.47;7.20;;;9.10;72.80;;;;;;5023965;28;20080;-73
2023/12/29 05:34:28;;;;;;;38.77;7.50;;;9.10;72.90;;;;;;5023680;28;20072;-74
2023/12/29 05:36:53;;;;;;;34.97;6.97;;;9.10;73.00;;;;;;5024663;28;20496;-72
2023/12/29 05:39:19;;;;;;;44.30;8.30;;;9.10;73.40;;;;;;5025728;28;20051;-72
2023/12/29 05:41:45;;;;;;;34.63;7.40;;;9.00;73.40;;;;;;5024857;28;20281;-72
2023/12/29 05:44:10;;;;;;;36.00;7.90;;;9.00;73.20;;;;;;5025170;28;20049;-71
2023/12/29 05:46:36;;;;;;;39.37;8.10;;;9.00;73.30;;;;;;5028247;28;20115;-72
2023/12/29 05:49:02;;;;;;;43.83;8.53;;;9.00;73.40;;;;;;5026244;28;20152;-73
2023/12/29 05:51:28;;;;;;;43.47;8.67;;;9.00;73.50;;;;;;5025840;28;20065;-72
2023/12/29 05:53:53;;;;;;;39.53;7.87;;;9.00;73.60;;;;;;5027031;28;20112;-72
2023/12/29 05:56:19;;;;;;;37.50;7.20;;;9.00;73.60;;;;;;5025272;28;20058;-73
2023/12/29 05:58:45;;;;;;;28.63;6.70;;;9.00;73.60;;;;;;5026902;28;20057;-74
2023/12/29 06:01:11;;;;;;;40.23;7.23;;;9.00;73.50;;;;;;5026683;28;20061;-72
2023/12/29 06:03:37;;;;;;;32.33;6.87;;;9.00;73.50;;;;;;5029615;28;20041;-72
2023/12/29 06:06:03;;;;;;;31.70;6.70;;;9.00;73.70;;;;;;5026864;28;20057;-71
2023/12/29 06:08:29;;;;;;;35.37;7.43;;;9.00;73.80;;;;;;5035895;28;20077;-74
2023/12/29 06:10:54;;;;;;;32.63;7.33;;;9.00;73.70;;;;;;5028167;28;20357;-72
2023/12/29 06:13:20;;;;;;;37.57;6.83;;;9.00;73.80;;;;;;5028452;28;20041;-72
2023/12/29 06:15:46;;;;;;;33.83;6.73;;;9.00;74.00;;;;;;5027541;28;20041;-72
2023/12/29 06:18:11;;;;;;;34.70;6.93;;;9.00;74.10;;;;;;5016334;28;20057;-72
2023/12/29 06:20:37;;;;;;;33.97;7.20;;;9.00;74.20;;;;;;5010831;28;20445;-72
2023/12/29 06:23:03;;;;;;;32.10;7.20;;;9.00;74.40;;;;;;5028021;28;20049;-74
2023/12/29 06:25:28;;;;;;;32.77;7.03;;;8.90;75.70;;;;;;5027050;28;20180;-74
2023/12/29 06:27:55;;;;;;;41.07;8.00;;;8.80;76.50;;;;;;5008793;28;20050;-74
2023/12/29 06:30:20;;;;;;;43.33;7.70;;;8.60;77.20;;;;;;5028330;28;20088;-75
2023/12/29 06:32:46;;;;;;;32.30;6.50;;;8.60;77.30;;;;;;5040647;28;20056;-75
2023/12/29 06:35:13;;;;;;;37.10;6.30;;;8.50;78.90;;;;;;5043408;28;20508;-74
2023/12/29 06:37:40;;;;;;;42.07;7.23;;;8.40;79.10;;;;;;5027181;28;20412;-73
2023/12/29 06:40:09;;;;;;;38.00;6.40;;;8.40;79.30;;;;;;5026868;28;20048;-73
2023/12/29 06:42:35;;;;;;;41.13;7.00;;;8.40;79.20;;;;;;5023495;28;20054;-73
2023/12/29 06:45:01;;;;;;;41.30;7.80;;;8.40;79.20;;;;;;5028398;28;20045;-73
2023/12/29 06:47:27;;;;;;;39.57;6.70;;;8.40;79.60;;;;;;5027186;28;20045;-73
2023/12/29 06:49:52;;;;;;;40.17;6.57;;;8.40;79.30;;;;;;5027534;28;20057;-73
2023/12/29 06:52:18;;;;;;;34.53;7.23;;;8.40;79.40;;;;;;5027155;28;20515;-74
2023/12/29 06:54:44;;;;;;;39.70;7.10;;;8.40;79.40;;;;;;5027331;28;20068;-73
2023/12/29 06:57:09;;;;;;;36.77;6.97;;;8.40;79.30;;;;;;5027037;28;20127;-74
2023/12/29 06:59:35;;;;;;;43.87;8.40;;;8.40;79.30;;;;;;5028255;28;20057;-73
2023/12/29 07:02:01;;;;;;;38.80;7.30;;;8.40;79.00;;;;;;5026572;28;20968;-73
2023/12/29 07:04:26;;;;;;;42.00;7.60;;;8.50;78.80;;;;;;5027841;28;20053;-73
2023/12/29 07:06:53;;;;;;;44.07;7.80;;;8.50;78.50;;;;;;5008945;28;20049;-73
2023/12/29 07:09:18;;;;;;;41.47;8.20;;;8.60;78.30;;;;;;5010229;28;20050;-73
2023/12/29 07:11:51;;;;;;;37.73;7.70;;;8.60;77.90;;;;;;5027205;28;20056;-73
2023/12/29 07:14:17;;;;;;;34.70;7.57;;;8.60;77.50;;;;;;5027592;28;20036;-74
2023/12/29 07:16:44;;;;;;;40.03;7.40;;;8.60;77.30;;;;;;5026359;28;20529;-73
2023/12/29 07:19:09;;;;;;;50.40;8.43;;;8.60;77.40;;;;;;5026928;28;20053;-73
2023/12/29 07:21:35;;;;;;;39.67;8.27;;;8.60;77.50;;;;;;5027327;28;20432;-73
2023/12/29 07:24:01;;;;;;;36.40;8.23;;;8.60;77.20;;;;;;5027072;28;20091;-73
2023/12/29 07:26:26;;;;;;;51.40;8.20;;;8.60;77.40;;;;;;5025262;28;20515;-74
2023/12/29 07:28:54;;;;;;;40.73;8.30;;;8.60;77.40;;;;;;5027213;28;20045;-74
2023/12/29 07:31:21;;;;;;;46.77;9.13;;;8.60;77.70;;;;;;5025075;28;20041;-75
2023/12/29 07:33:47;;;;;;;47.93;8.00;;;8.60;77.90;;;;;;5012492;28;20521;-75
2023/12/29 07:36:13;;;;;;;45.37;8.03;;;8.60;78.70;;;;;;5014951;28;20045;-75
2023/12/29 07:38:39;;;;;;;41.73;7.83;;;8.50;79.00;;;;;;5027095;28;20064;-74
2023/12/29 07:41:04;;;;;;;42.27;8.70;;;8.40;79.10;;;;;;5025931;28;20409;-74
2023/12/29 07:43:31;;;;;;;43.83;8.27;;;8.40;79.30;;;;;;5020649;28;20412;-73
2023/12/29 07:45:57;;;;;;;34.70;8.00;;;8.40;79.20;;;;;;5026511;28;20053;-71
2023/12/29 07:48:23;;;;;;;39.70;8.07;;;8.40;79.30;;;;;;5027471;28;20060;-74
2023/12/29 07:50:49;;;;;;;37.97;7.20;;;8.40;78.90;;;;;;5026493;28;20096;-73
2023/12/29 07:53:14;;;;;;;43.53;7.20;;;8.40;79.00;;;;;;5026280;28;20103;-74
2023/12/29 07:55:40;;;;;;;36.53;7.70;;;8.50;78.60;;;;;;5026815;28;20072;-74
2023/12/29 07:58:06;;;;;;;39.77;7.60;;;8.50;78.40;;;;;;5025988;28;20488;-74
2023/12/29 08:00:33;;;;;;;33.27;7.23;;;8.50;78.00;;;;;;5026355;28;20042;-73
2023/12/29 08:02:59;;;;;;;35.13;6.57;;;8.60;76.70;;;;;;5025499;28;20528;-74
2023/12/29 08:05:25;;;;;;;39.33;6.90;;;8.60;76.90;;;;;;5026369;28;20128;-74
2023/12/29 08:07:50;;;;;;;35.17;6.87;;;8.60;76.70;;;;;;5026278;28;20121;-74
2023/12/29 08:10:16;;;;;;;37.60;6.17;;;8.70;76.40;;;;;;5025322;28;20056;-74
2023/12/29 08:12:42;;;;;;;45.57;7.20;;;8.70;76.40;;;;;;5027219;28;20104;-74
2023/12/29 08:15:08;;;;;;;40.07;7.77;;;8.80;76.40;;;;;;5026025;28;20508;-73
2023/12/29 08:17:34;;;;;;;34.33;7.17;;;8.70;76.30;;;;;;5025073;28;20045;-74
2023/12/29 08:19:59;;;;;;;32.87;6.83;;;8.70;76.30;;;;;;5025479;28;20394;-74
2023/12/29 08:22:29;;;;;;;29.67;6.57;;;8.70;76.10;;;;;;5024735;28;20444;-74
2023/12/29 08:24:55;;;;;;;32.83;5.90;;;8.70;75.30;;;;;;5041406;28;20378;-74
2023/12/29 08:27:28;;;;;;;32.53;6.93;;;8.80;75.40;;;;;;5024894;28;20056;-74
2023/12/29 08:29:56;;;;;;;35.70;6.30;;;8.80;75.10;;;;;;5026459;28;20488;-72
2023/12/29 08:32:22;;;;;;;30.57;6.47;;;8.80;75.10;;;;;;5023262;28;20080;-74
2023/12/29 08:34:48;;;;;;;30.23;6.43;;;8.80;74.80;;;;;;5025032;28;20077;-75
2023/12/29 08:37:19;;;;;;;25.20;5.30;;;8.80;74.90;;;;;;5024927;28;20379;-73
2023/12/29 08:39:46;;;;;;;31.00;5.85;;;8.80;74.40;;;;;;5026437;28;20042;-74
2023/12/29 08:42:12;;;;;;;27.00;6.10;;;8.90;73.80;;;;;;5019052;28;20100;-73
2023/12/29 08:44:37;;;;;;;31.80;6.63;;;8.90;74.30;;;;;;5025970;28;20053;-74
2023/12/29 08:47:03;;;;;;;32.17;6.70;;;8.90;74.50;;;;;;5024999;28;20112;-74
2023/12/29 08:49:29;;;;;;;36.87;6.53;;;8.90;74.90;;;;;;5026266;28;20056;-73
2023/12/29 08:51:54;;;;;;;32.07;6.50;;;8.90;75.30;;;;;;5024126;28;20408;-73
2023/12/29 08:54:20;;;;;;;32.57;6.97;;;8.80;75.30;;;;;;5027136;28;20333;-73
2023/12/29 08:56:46;;;;;;;33.97;6.63;;;8.80;75.50;;;;;;5024504;28;20124;-73
2023/12/29 08:59:11;;;;;;;32.70;6.57;;;8.80;75.10;;;;;;5017541;28;20492;-73
2023/12/29 09:01:37;;;;;;;33.33;6.83;;;8.80;75.30;;;;;;5017102;28;20408;-73
2023/12/29 09:04:03;;;;;;;31.87;6.17;;;8.80;75.50;;;;;;5022671;28;20053;-74
2023/12/29 09:06:28;;;;;;;32.43;6.53;;;8.70;75.70;;;;;;5023542;28;20061;-73
2023/12/29 09:08:54;;;;;;;28.93;6.33;;;8.60;75.70;;;;;;5020960;28;20049;-74
2023/12/29 09:11:20;;;;;;;26.87;5.83;;;8.60;75.70;;;;;;5022660;28;20042;-74
2023/12/29 09:13:45;;;;;;;38.37;6.30;;;8.60;75.50;;;;;;5022311;28;20053;-74
2023/12/29 09:16:11;;;;;;;29.30;6.10;;;8.60;75.60;;;;;;5028812;28;20430;-74
2023/12/29 09:18:37;;;;;;;32.30;5.97;;;8.60;75.40;;;;;;5022786;28;20075;-74
2023/12/29 09:21:02;;;;;;;32.63;7.20;;;8.60;75.60;;;;;;5022718;28;20052;-74
2023/12/29 09:23:28;;;;;;;30.27;6.30;;;8.60;75.70;;;;;;5021738;28;20057;-74
2023/12/29 09:25:54;;;;;;;39.20;6.97;;;8.60;75.90;;;;;;5021991;28;20588;-73
2023/12/29 09:28:19;;;;;;;41.40;7.30;;;8.60;76.30;;;;;;5023016;28;20049;-74
2023/12/29 09:30:45;;;;;;;39.47;7.37;;;8.60;76.60;;;;;;5015983;28;20452;-73
2023/12/29 09:33:12;;;;;;;35.50;7.50;;;8.60;77.00;;;;;;5022079;28;20077;-73
2023/12/29 09:35:38;;;;;;;31.37;6.47;;;8.70;76.90;;;;;;5021340;28;20103;-73
2023/12/29 09:38:04;;;;;;;36.77;7.70;;;8.80;77.00;;;;;;5021526;28;20560;-73
2023/12/29 09:40:30;;;;;;;38.00;7.30;;;8.80;76.90;;;;;;5025515;28;20244;-74
2023/12/29 09:42:56;;;;;;;42.70;7.27;;;8.90;76.90;;;;;;5025053;28;20897;-74
2023/12/29 09:45:26;;;;;;;40.07;7.20;;;8.90;76.60;;;;;;5026210;28;20061;-73
2023/12/29 09:47:53;;;;;;;33.90;6.30;;;9.00;76.50;;;;;;5020916;28;20124;-73
2023/12/29 09:50:19;;;;;;;36.10;6.60;;;9.00;76.30;;;;;;5025655;28;20439;-73
2023/12/29 09:52:49;;;;;;;36.20;6.60;;;9.00;76.10;;;;;;5023625;28;20133;-73
2023/12/29 09:55:15;;;;;;;35.03;6.80;;;9.00;76.00;;;;;;5017213;28;20057;-73
2023/12/29 09:57:41;;;;;;;34.43;6.47;;;9.10;75.80;;;;;;5026366;28;20061;-73
2023/12/29 10:00:11;;;;;;;32.07;6.33;;;9.20;75.50;;;;;;5025058;28;20042;-74
2023/12/29 10:02:38;;;;;;;25.70;6.00;;;9.10;75.50;;;;;;5022938;28;20049;-74
2023/12/29 10:05:05;;;;;;;38.17;6.50;;;9.10;75.50;;;;;;5021344;28;20533;-73
2023/12/29 10:07:36;;;;;;;28.43;6.10;;;9.10;75.30;;;;;;5016673;28;20579;-74
2023/12/29 10:10:04;;;;;;;33.15;6.93;;;9.10;75.50;;;;;;5014991;28;20492;-74
2023/12/29 10:12:30;;;;;;;35.77;6.57;;;9.10;75.60;;;;;;5026802;28;20053;-74
2023/12/29 10:15:25;;;;;;;34.57;6.97;;;9.20;75.70;;;;;;5023998;28;20109;-74
2023/12/29 10:18:10;;;;;;;35.40;6.87;;;9.20;75.70;;;;;;5018765;28;20493;-74
2023/12/29 10:20:59;;;;;;;34.60;7.33;;;9.20;75.40;;;;;;5025453;28;20061;-74
2023/12/29 10:23:51;;;;;;;25.20;6.07;;;9.20;75.20;;;;;;5016298;28;20056;-73
2023/12/29 10:26:17;;;;;;;30.63;6.70;;;9.20;75.00;;;;;;5016204;28;20064;-73
2023/12/29 10:28:43;;;;;;;39.20;5.67;;;9.20;74.80;;;;;;5019972;28;20066;-73
2023/12/29 10:31:14;;;;;;;32.20;6.50;;;9.20;74.90;;;;;;5021094;28;20108;-73
2023/12/29 10:33:39;;;;;;;32.17;6.43;;;9.20;74.20;;;;;;5011849;28;20072;-73
2023/12/29 10:36:07;;;;;;;27.60;6.30;;;9.20;73.70;;;;;;5019374;28;20156;-73
2023/12/29 10:38:33;;;;;;;27.67;5.47;;;9.20;72.90;;;;;;5023810;28;20056;-74
2023/12/29 10:41:16;;;;;;;31.37;5.60;;;9.20;73.10;;;;;;5024486;28;20092;-72
2023/12/29 10:43:44;;;;;;;28.20;5.90;;;9.20;71.40;;;;;;5016676;28;20041;-74
2023/12/29 10:46:11;;;;;;;27.83;5.47;;;9.20;71.70;;;;;;5023952;28;20057;-73
2023/12/29 10:48:37;;;;;;;24.53;5.47;;;9.20;71.90;;;;;;5022424;28;20085;-73
2023/12/29 10:51:04;;;;;;;31.53;5.83;;;9.30;71.50;;;;;;5021259;28;20157;-73
2023/12/29 10:53:34;;;;;;;28.23;5.73;;;9.40;71.70;;;;;;5023113;28;20065;-74
2023/12/29 10:56:00;;;;;;;22.43;5.33;;;9.40;71.60;;;;;;5022919;28;20701;-74
2023/12/29 10:58:31;;;;;;;23.50;5.23;;;9.60;70.70;;;;;;5022144;28;20110;-74
2023/12/29 11:00:57;;;;;;;20.88;4.60;;;9.80;69.90;;;;;;5022972;28;20041;-73
2023/12/29 11:03:24;;;;;;;25.23;5.20;;;9.80;69.60;;;;;;5020148;28;20579;-73
2023/12/29 11:05:50;;;;;;;21.70;5.07;;;9.70;68.70;;;;;;5014145;28;20101;-72
2023/12/29 11:08:20;;;;;;;24.43;5.20;;;9.40;69.10;;;;;;5019071;28;20483;-72
2023/12/29 11:10:48;;;;;;;23.90;4.70;;;9.20;68.90;;;;;;5024616;28;20124;-73
2023/12/29 11:13:14;;;;;;;21.80;4.00;;;9.10;69.20;;;;;;5024307;28;20072;-74
2023/12/29 11:15:44;;;;;;;21.53;4.03;;;9.20;68.90;;;;;;5024810;28;20049;-74
2023/12/29 11:18:14;;;;;;;16.63;4.00;;;9.50;68.30;;;;;;5019439;28;20197;-73
2023/12/29 11:20:45;;;;;;;19.40;4.23;;;9.70;66.60;;;;;;5023729;28;20124;-72
2023/12/29 11:23:14;;;;;;;22.08;3.88;;;9.60;66.50;;;;;;5023594;28;20127;-73
2023/12/29 11:25:41;;;;;;;21.07;4.20;;;9.40;66.20;;;;;;5022254;28;20517;-72
2023/12/29 11:28:10;;;;;;;25.33;5.30;;;9.40;66.60;;;;;;5024324;28;20095;-72
2023/12/29 11:30:37;;;;;;;20.03;4.50;;;9.60;66.80;;;;;;5023425;28;20046;-73
2023/12/29 11:33:12;;;;;;;23.53;4.20;;;9.80;66.80;;;;;;5021251;28;20041;-73
2023/12/29 11:36:01;;;;;;;26.20;4.93;;;10.00;66.60;;;;;;5015182;28;20423;-74
2023/12/29 11:38:53;;;;;;;29.07;5.50;;;10.10;66.00;;;;;;5023955;28;20455;-73
2023/12/29 11:41:25;;;;;;;24.87;4.50;;;10.20;66.70;;;;;;5020899;28;20077;-73
2023/12/29 11:43:58;;;;;;;19.73;4.37;;;10.50;66.90;;;;;;5024385;28;20069;-73
2023/12/29 11:46:37;;;;;;;25.77;4.70;;;10.80;66.80;;;;;;5022911;28;20156;-73
2023/12/29 11:49:04;;;;;;;28.90;5.57;;;10.70;66.10;;;;;;5029273;28;20053;-72
2023/12/29 11:51:38;;;;;;;25.70;5.27;;;10.60;66.90;;;;;;5023900;28;20055;-72
2023/12/29 11:54:05;;;;;;;22.67;5.13;;;10.40;67.10;;;;;;5023852;28;20045;-73
2023/12/29 11:56:36;;;;;;;20.93;4.93;;;10.30;66.90;;;;;;5020990;28;20544;-73
2023/12/29 11:59:14;;;;;;;21.80;4.60;;;10.30;66.50;;;;;;5016642;28;20195;-71
2023/12/29 12:01:40;;;;;;;17.00;4.10;;;10.20;65.40;;;;;;4992423;28;20302;-72
2023/12/29 12:04:44;;;;;;;17.63;4.43;;;10.10;66.40;;;;;;5017773;28;20435;-73
2023/12/29 12:07:37;;;;;;;28.17;5.10;;;10.00;66.00;;;;;;5014934;28;20567;-73
2023/12/29 12:10:21;;;;;;;19.37;4.80;;;9.90;66.50;;;;;;5014823;28;20053;-73
2023/12/29 12:12:51;;;;;;;24.00;5.10;;;9.80;66.80;;;;;;5033767;28;20920;-72
2023/12/29 12:15:29;;;;;;;20.27;4.80;;;9.80;66.90;;;;;;5005652;28;20054;-72
2023/12/29 12:17:57;;;;;;;19.33;4.33;;;9.80;66.00;;;;;;5019797;28;20724;-73
2023/12/29 12:20:23;;;;;;;18.37;4.30;;;9.80;65.90;;;;;;5015348;28;20056;-72
2023/12/29 12:22:59;;;;;;;25.50;4.80;;;9.70;65.30;;;;;;5021379;28;20073;-72
2023/12/29 12:25:29;;;;;;;29.60;4.67;;;9.60;65.70;;;;;;5016379;28;20560;-74
2023/12/29 12:27:56;;;;;;;21.98;4.68;;;9.40;64.80;;;;;;5024934;28;20137;-72
2023/12/29 12:30:23;;;;;;;23.03;4.90;;;9.40;65.80;;;;;;5020509;28;20143;-71
2023/12/29 12:32:59;;;;;;;16.33;4.17;;;9.40;66.00;;;;;;5019988;28;20053;-71
2023/12/29 12:35:27;;;;;;;22.57;4.57;;;9.40;66.10;;;;;;5019850;28;20053;-71
2023/12/29 12:38:13;;;;;;;25.70;5.10;;;9.70;65.70;;;;;;5022917;28;20049;-73
2023/12/29 12:40:39;;;;;;;26.73;5.83;;;9.80;65.00;;;;;;5021484;28;20045;-72
2023/12/29 12:43:06;;;;;;;20.30;4.33;;;9.50;65.00;;;;;;5019059;28;20103;-72
2023/12/29 12:45:41;;;;;;;20.03;4.73;;;9.30;66.00;;;;;;5018037;28;20052;-71